Time;durP1;ratioP1;P1;durP2;ratioP2;P2;SDS_P1;SDS_P2;PMS_P1;PMS_P2;Temp;Humidity;BMP_temperature;BMP_pressure;BME280_temperature;BME280_humidity;BME280_pressure;Samples;Min_cycle;Max_cycle;Signal;HPM_P1;HPM_P2
2022/11/04 00:01:47;;;;;;;26.60;18.02;;;12.70;99.90;;;;;;5118604;28;20039;-72
2022/11/04 00:04:15;;;;;;;31.77;21.88;;;12.60;99.90;;;;;;5119822;28;20024;-72
2022/11/04 00:06:41;;;;;;;28.17;19.38;;;12.70;99.90;;;;;;5119677;28;20051;-72
2022/11/04 00:09:10;;;;;;;26.90;18.42;;;12.70;99.90;;;;;;5119627;28;20039;-72
2022/11/04 00:14:20;;;;;;;27.63;18.85;;;12.70;99.90;;;;;;5118818;28;20068;-72
2022/11/04 00:30:28;;;;;;;21.90;16.35;;;13.20;99.90;;;;;;5119272;28;20084;-72
2022/11/04 00:35:38;;;;;;;19.75;14.98;;;13.10;99.90;;;;;;5119231;28;20122;-72
2022/11/04 00:38:04;;;;;;;19.88;14.68;;;13.10;99.90;;;;;;5118973;28;20408;-72
2022/11/04 00:40:29;;;;;;;18.58;13.15;;;13.00;99.90;;;;;;5118958;28;20094;-72
2022/11/04 00:42:55;;;;;;;14.52;10.63;;;12.90;99.90;;;;;;5119278;28;20103;-72
2022/11/04 00:45:21;;;;;;;11.60;7.55;;;12.70;99.90;;;;;;5118655;28;20127;-72
2022/11/04 00:47:46;;;;;;;10.70;7.03;;;12.60;99.90;;;;;;5117634;28;20428;-72
2022/11/04 00:50:12;;;;;;;10.18;6.97;;;12.40;99.90;;;;;;5118741;28;20036;-72
2022/11/04 00:52:38;;;;;;;8.18;5.55;;;12.30;99.90;;;;;;5118531;28;20059;-72
2022/11/04 00:55:04;;;;;;;8.05;5.68;;;12.30;99.90;;;;;;5118655;28;20039;-72
2022/11/04 00:57:30;;;;;;;9.15;5.38;;;12.10;99.90;;;;;;5151947;27;20043;-72
2022/11/04 00:59:56;;;;;;;8.63;4.97;;;11.90;99.90;;;;;;5118694;28;20363;-72
2022/11/04 01:02:22;;;;;;;10.18;4.50;;;11.90;99.90;;;;;;5151959;27;20061;-74
2022/11/04 01:04:47;;;;;;;8.00;4.63;;;11.90;99.90;;;;;;5134648;27;20324;-72
2022/11/04 01:07:13;;;;;;;7.78;4.10;;;11.80;99.90;;;;;;5118213;28;20396;-73
2022/11/04 01:09:39;;;;;;;6.15;3.47;;;11.90;99.90;;;;;;5118509;28;20117;-72
2022/11/04 01:12:05;;;;;;;13.55;3.72;;;11.90;99.90;;;;;;5118221;28;20047;-73
2022/11/04 01:14:30;;;;;;;11.98;3.17;;;11.80;99.90;;;;;;5118457;28;20035;-72
2022/11/04 01:16:56;;;;;;;4.13;2.40;;;11.80;99.90;;;;;;5118063;28;20474;-73
2022/11/04 01:19:21;;;;;;;4.88;2.50;;;11.70;99.90;;;;;;5118367;28;20039;-72
2022/11/04 01:21:51;;;;;;;3.03;2.10;;;11.90;99.90;;;;;;5118120;27;20058;-72
2022/11/04 01:24:18;;;;;;;4.13;1.70;;;11.90;99.90;;;;;;5117687;28;20032;-72
2022/11/04 01:26:43;;;;;;;3.60;1.30;;;12.10;99.90;;;;;;5117696;28;20046;-72
2022/11/04 01:29:09;;;;;;;4.35;1.63;;;12.20;99.90;;;;;;5118170;28;20032;-72
2022/11/04 01:31:35;;;;;;;3.78;1.55;;;12.40;99.90;;;;;;5151271;27;20035;-72
2022/11/04 01:34:01;;;;;;;2.20;1.50;;;12.40;99.90;;;;;;5151462;27;20032;-72
2022/11/04 01:36:27;;;;;;;3.85;1.30;;;12.30;99.90;;;;;;5118142;28;20044;-72
2022/11/04 01:38:57;;;;;;;4.28;1.40;;;12.30;99.90;;;;;;5117881;28;20043;-72
2022/11/04 01:41:31;;;;;;;4.90;1.50;;;12.40;99.90;;;;;;5118024;27;20126;-73
2022/11/04 01:43:58;;;;;;;4.18;1.92;;;12.40;99.90;;;;;;5117716;28;20039;-73
2022/11/04 01:46:37;;;;;;;3.83;1.80;;;12.50;99.90;;;;;;5117603;28;20040;-72
2022/11/04 01:49:22;;;;;;;2.35;1.75;;;12.50;99.90;;;;;;5151164;27;20119;-72
2022/11/04 01:51:49;;;;;;;8.15;1.60;;;12.50;99.90;;;;;;5117473;28;20086;-73
2022/11/04 01:54:15;;;;;;;5.25;1.17;;;12.60;99.90;;;;;;5117763;28;20180;-72
2022/11/04 01:56:43;;;;;;;5.35;1.50;;;12.50;99.90;;;;;;5116411;28;20449;-72
2022/11/04 01:59:20;;;;;;;3.92;1.50;;;12.50;99.90;;;;;;5117647;28;20054;-73
2022/11/04 02:01:45;;;;;;;5.38;1.70;;;12.50;99.90;;;;;;5151194;27;20043;-72
2022/11/04 02:04:24;;;;;;;5.57;1.85;;;12.40;99.90;;;;;;5117540;28;20348;-73
2022/11/04 02:06:56;;;;;;;6.35;1.60;;;12.40;99.90;;;;;;5117404;28;20089;-72
2022/11/04 02:09:23;;;;;;;6.22;1.40;;;12.30;99.90;;;;;;5117438;28;20039;-72
2022/11/04 02:14:33;;;;;;;5.68;1.38;;;12.20;99.90;;;;;;5117249;28;20050;-72
2022/11/04 02:17:37;;;;;;;7.13;1.58;;;12.10;99.90;;;;;;5116924;28;20046;-73
2022/11/04 02:20:15;;;;;;;5.85;1.00;;;11.90;99.90;;;;;;5117300;28;20035;-73
2022/11/04 02:22:46;;;;;;;2.20;1.00;;;11.70;99.90;;;;;;5117142;28;20048;-72
2022/11/04 02:25:36;;;;;;;5.65;1.13;;;11.60;99.90;;;;;;5116846;28;20043;-72
2022/11/04 02:28:20;;;;;;;7.53;1.50;;;11.60;99.90;;;;;;5117096;28;20071;-71
2022/11/04 02:31:10;;;;;;;8.80;1.30;;;11.60;99.90;;;;;;5117170;28;20096;-73
2022/11/04 02:33:47;;;;;;;7.15;1.10;;;11.60;99.90;;;;;;5087817;28;20047;-73
2022/11/04 02:36:21;;;;;;;5.75;1.20;;;11.70;99.90;;;;;;5116157;28;20039;-72
2022/11/04 02:38:59;;;;;;;6.32;1.20;;;11.70;99.90;;;;;;5121811;28;20043;-72
2022/11/04 02:41:27;;;;;;;7.05;1.60;;;11.80;99.90;;;;;;5121187;28;20039;-73
2022/11/04 02:44:20;;;;;;;3.78;1.10;;;11.80;99.90;;;;;;5121383;28;20050;-73
2022/11/04 02:47:10;;;;;;;6.57;1.67;;;11.80;99.90;;;;;;5120772;28;20039;-72
2022/11/04 02:49:57;;;;;;;6.80;1.50;;;12.00;99.90;;;;;;5120947;28;20329;-72
2022/11/04 02:52:40;;;;;;;6.40;1.35;;;12.10;99.90;;;;;;5120795;28;20052;-73
2022/11/04 02:55:12;;;;;;;9.63;1.63;;;12.20;99.90;;;;;;5121190;28;20054;-72
2022/11/04 02:57:40;;;;;;;7.45;1.52;;;12.30;99.90;;;;;;5121089;28;20063;-72
2022/11/04 03:00:08;;;;;;;8.18;1.23;;;12.30;99.90;;;;;;5119988;28;20112;-72
2022/11/04 03:02:42;;;;;;;6.38;1.50;;;12.40;99.90;;;;;;5154105;27;20444;-73
2022/11/04 03:05:19;;;;;;;7.78;1.17;;;12.40;99.90;;;;;;5119677;28;20040;-72
2022/11/04 03:07:46;;;;;;;12.93;1.30;;;12.40;99.90;;;;;;5120714;28;20088;-73
2022/11/04 03:10:19;;;;;;;4.03;1.30;;;12.50;99.90;;;;;;5120733;28;20074;-73
2022/11/04 03:13:01;;;;;;;7.85;1.30;;;12.50;99.90;;;;;;5120910;27;20039;-73
2022/11/04 03:15:31;;;;;;;6.65;1.00;;;12.50;99.90;;;;;;5120377;28;20055;-73
2022/11/04 03:18:11;;;;;;;5.90;0.80;;;12.60;99.90;;;;;;5120851;28;20036;-73
2022/11/04 03:20:39;;;;;;;6.22;1.10;;;12.70;99.90;;;;;;5120475;28;20048;-73
2022/11/04 03:23:08;;;;;;;4.53;1.00;;;12.60;99.90;;;;;;5120545;28;20047;-72
2022/11/04 03:25:42;;;;;;;7.57;1.10;;;12.60;99.90;;;;;;5120169;28;20176;-73
2022/11/04 03:28:40;;;;;;;6.50;1.00;;;12.60;99.90;;;;;;5120635;28;20038;-72
2022/11/04 03:31:12;;;;;;;5.60;0.95;;;12.60;99.90;;;;;;5120540;28;20040;-72
2022/11/04 03:33:51;;;;;;;2.90;0.80;;;12.60;99.90;;;;;;5120198;28;20040;-72
2022/11/04 03:36:18;;;;;;;5.00;1.05;;;12.60;99.90;;;;;;5120350;28;20050;-72
2022/11/04 03:38:44;;;;;;;9.32;1.20;;;12.70;99.90;;;;;;5120391;28;20096;-72
2022/11/04 03:41:21;;;;;;;3.72;1.10;;;12.70;99.90;;;;;;5120093;28;20043;-72
2022/11/04 03:43:47;;;;;;;9.65;1.50;;;12.70;99.90;;;;;;5120172;28;20040;-72
2022/11/04 03:46:13;;;;;;;6.68;1.40;;;12.70;99.90;;;;;;5118203;28;20451;-72
2022/11/04 03:48:40;;;;;;;6.63;1.73;;;12.80;99.90;;;;;;5119325;27;20040;-73
2022/11/04 03:51:08;;;;;;;4.68;1.17;;;12.80;99.90;;;;;;5119692;28;20039;-73
2022/11/04 03:53:34;;;;;;;5.72;1.27;;;12.90;99.90;;;;;;5119818;28;20049;-72
2022/11/04 03:56:09;;;;;;;4.72;1.00;;;12.90;99.90;;;;;;5118650;28;20448;-72
2022/11/04 03:58:46;;;;;;;6.80;1.30;;;12.80;99.90;;;;;;5119378;28;20512;-72
2022/11/04 04:01:15;;;;;;;6.38;1.25;;;12.90;99.90;;;;;;5119524;28;20051;-72
2022/11/04 04:03:48;;;;;;;8.20;1.30;;;12.80;99.90;;;;;;5119786;28;20043;-72
2022/11/04 04:06:23;;;;;;;3.78;1.40;;;12.80;99.90;;;;;;5119498;28;20039;-72
2022/11/04 04:09:07;;;;;;;4.55;1.48;;;12.80;99.90;;;;;;5119520;27;20044;-72
2022/11/04 04:11:56;;;;;;;7.85;2.10;;;12.80;99.90;;;;;;5119273;28;20426;-72
2022/11/04 04:14:38;;;;;;;2.78;1.20;;;12.80;99.90;;;;;;5119717;28;20032;-72
2022/11/04 04:17:24;;;;;;;4.05;1.65;;;12.70;99.90;;;;;;5119169;28;20436;-72
2022/11/04 04:19:58;;;;;;;3.63;1.65;;;12.70;99.90;;;;;;5119375;28;20110;-72
2022/11/04 04:22:32;;;;;;;6.55;1.90;;;12.70;99.90;;;;;;5119645;28;20039;-72
2022/11/04 04:27:48;;;;;;;5.65;2.20;;;12.60;99.90;;;;;;5119439;28;20344;-72
2022/11/04 04:30:15;;;;;;;9.00;2.03;;;12.40;99.90;;;;;;5119274;27;20071;-72
2022/11/04 04:32:45;;;;;;;12.43;2.78;;;12.20;99.90;;;;;;5119187;28;20123;-72
2022/11/04 04:44:58;;;;;;;10.70;2.03;;;12.10;99.90;;;;;;5119287;28;20043;-72
2022/11/04 04:46:30;;;;;;;9.05;1.40;;;11.70;99.90;;;;;;5118496;28;20058;-72
2022/11/04 04:49:05;;;;;;;5.32;1.52;;;11.60;99.90;;;;;;5117936;28;20065;-73
2022/11/04 04:51:32;;;;;;;5.18;1.40;;;11.60;99.90;;;;;;5118478;28;20047;-72
2022/11/04 04:53:58;;;;;;;7.38;1.60;;;11.60;99.90;;;;;;5118753;28;20040;-73
2022/11/04 04:56:23;;;;;;;6.32;1.55;;;11.80;99.90;;;;;;5118740;28;20480;-72
2022/11/04 04:58:49;;;;;;;4.78;1.20;;;11.80;99.90;;;;;;5118467;28;20451;-72
2022/11/04 05:01:15;;;;;;;5.60;1.10;;;11.80;99.90;;;;;;5117767;28;20051;-72
2022/11/04 05:03:40;;;;;;;6.85;0.90;;;11.80;99.90;;;;;;5118272;28;20417;-72
2022/11/04 05:06:06;;;;;;;6.28;1.00;;;11.80;99.90;;;;;;5118258;28;20039;-72
2022/11/04 05:08:34;;;;;;;3.38;0.90;;;11.70;99.90;;;;;;5118476;28;20042;-72
2022/11/04 05:10:59;;;;;;;4.07;0.90;;;11.70;99.90;;;;;;5118544;28;20138;-72
2022/11/04 05:13:25;;;;;;;3.25;0.90;;;11.70;99.90;;;;;;5118179;28;20119;-72
2022/11/04 05:15:51;;;;;;;4.22;1.00;;;11.60;99.90;;;;;;5117831;28;20073;-73
2022/11/04 05:18:18;;;;;;;4.80;1.08;;;11.60;99.90;;;;;;5118365;28;20081;-72
2022/11/04 05:20:44;;;;;;;5.85;0.80;;;11.60;99.90;;;;;;5118263;28;20039;-72
2022/11/04 05:23:11;;;;;;;3.47;0.95;;;11.50;99.90;;;;;;5118349;28;20127;-72
2022/11/04 05:25:40;;;;;;;4.57;0.80;;;11.40;99.90;;;;;;5134202;27;20071;-72
2022/11/04 05:28:07;;;;;;;3.22;0.95;;;11.40;99.90;;;;;;5151633;27;20053;-72
2022/11/04 05:30:33;;;;;;;4.57;1.05;;;11.40;99.90;;;;;;5116897;28;20039;-72
2022/11/04 05:32:59;;;;;;;4.35;0.80;;;11.60;99.90;;;;;;5118026;28;20074;-72
2022/11/04 05:35:24;;;;;;;8.75;1.13;;;11.40;99.90;;;;;;5118061;28;20328;-72
2022/11/04 05:37:50;;;;;;;2.28;0.68;;;11.30;99.90;;;;;;5118008;28;20329;-72
2022/11/04 05:40:16;;;;;;;3.65;0.82;;;11.30;99.90;;;;;;5117871;28;20437;-72
2022/11/04 05:42:42;;;;;;;2.15;0.95;;;11.50;99.90;;;;;;5117517;28;20038;-72
2022/11/04 05:45:08;;;;;;;6.93;0.95;;;11.50;99.90;;;;;;5117682;28;20044;-72
2022/11/04 05:47:33;;;;;;;5.10;0.80;;;11.60;99.90;;;;;;5150556;27;20048;-72
2022/11/04 05:50:00;;;;;;;3.47;0.80;;;11.60;99.90;;;;;;5117823;28;20063;-72
2022/11/04 05:52:26;;;;;;;6.05;1.35;;;11.70;99.90;;;;;;5116272;28;20117;-72
2022/11/04 05:54:52;;;;;;;2.45;1.00;;;11.90;99.90;;;;;;5117628;28;20337;-72
2022/11/04 05:57:17;;;;;;;5.22;1.42;;;11.90;99.90;;;;;;5117399;28;20044;-72
2022/11/04 05:59:43;;;;;;;3.05;0.90;;;11.90;99.90;;;;;;5117493;28;20126;-72
2022/11/04 06:02:09;;;;;;;3.10;0.90;;;11.90;99.90;;;;;;5117574;28;20051;-72
2022/11/04 06:04:34;;;;;;;1.02;0.73;;;11.90;99.90;;;;;;5117458;28;20118;-72
2022/11/04 06:07:00;;;;;;;5.50;1.00;;;12.00;99.90;;;;;;5117504;28;20071;-72
2022/11/04 06:09:37;;;;;;;11.50;4.40;;;11.90;99.90;;;;;;5117208;28;20036;-72
2022/11/04 06:12:14;;;;;;;5.38;2.00;;;11.70;99.90;;;;;;5150460;27;20370;-72
2022/11/04 06:14:41;;;;;;;6.15;1.65;;;11.20;99.90;;;;;;5116032;28;20036;-72
2022/11/04 06:17:15;;;;;;;8.35;1.90;;;11.10;99.90;;;;;;5117011;28;20077;-72
2022/11/04 06:19:41;;;;;;;7.57;1.70;;;11.20;99.90;;;;;;5116135;28;20050;-72
2022/11/04 06:22:09;;;;;;;11.75;2.63;;;11.20;99.90;;;;;;5133195;27;20118;-72
2022/11/04 06:24:35;;;;;;;7.20;2.95;;;11.20;99.90;;;;;;5117322;28;20348;-72
2022/11/04 06:27:01;;;;;;;5.63;2.25;;;11.20;99.90;;;;;;5116907;28;20039;-72
2022/11/04 06:29:26;;;;;;;5.65;1.65;;;11.40;99.90;;;;;;5117244;28;20044;-72
2022/11/04 06:31:52;;;;;;;6.20;1.60;;;11.50;99.90;;;;;;5117155;28;20036;-72
2022/11/04 06:34:18;;;;;;;5.25;1.70;;;11.60;99.90;;;;;;5117015;28;20036;-72
2022/11/04 06:36:43;;;;;;;3.00;1.20;;;11.50;99.90;;;;;;5117299;28;20111;-72
2022/11/04 06:39:09;;;;;;;5.57;1.58;;;11.40;99.90;;;;;;5115725;28;20043;-72
2022/11/04 06:41:35;;;;;;;6.57;1.60;;;11.50;99.90;;;;;;5117090;28;20044;-73
2022/11/04 06:44:00;;;;;;;5.70;1.40;;;11.50;99.90;;;;;;5116731;28;20122;-72
2022/11/04 06:46:39;;;;;;;6.43;2.05;;;11.40;99.90;;;;;;5116785;28;20043;-72
2022/11/04 06:49:10;;;;;;;6.13;1.92;;;11.40;99.90;;;;;;5116724;28;20097;-72
2022/11/04 06:51:35;;;;;;;7.13;2.20;;;11.40;99.90;;;;;;5132911;28;20067;-72
2022/11/04 06:54:01;;;;;;;6.18;2.80;;;11.40;99.90;;;;;;5115672;28;20490;-72
2022/11/04 06:56:27;;;;;;;2.78;1.60;;;11.40;99.90;;;;;;5116621;28;20061;-72
2022/11/04 06:58:54;;;;;;;4.00;1.85;;;11.40;99.90;;;;;;5116748;28;20040;-72
2022/11/04 07:01:22;;;;;;;4.70;1.50;;;11.50;99.90;;;;;;5116741;28;20035;-72
2022/11/04 07:03:49;;;;;;;4.88;1.52;;;11.60;99.90;;;;;;5150096;27;20032;-72
2022/11/04 07:06:14;;;;;;;4.93;2.25;;;11.60;99.90;;;;;;5116509;28;20050;-72
2022/11/04 07:08:40;;;;;;;2.40;1.52;;;11.50;99.90;;;;;;5116543;28;20036;-73
2022/11/04 07:11:06;;;;;;;6.22;1.60;;;11.40;99.90;;;;;;5116851;28;20035;-72
2022/11/04 07:13:31;;;;;;;2.50;1.30;;;11.50;99.90;;;;;;5116727;28;20111;-73
2022/11/04 07:15:57;;;;;;;7.25;1.77;;;11.60;99.90;;;;;;5116721;28;20443;-72
2022/11/04 07:18:23;;;;;;;2.17;1.15;;;11.70;99.90;;;;;;5116644;28;20040;-72
2022/11/04 07:20:49;;;;;;;5.35;1.40;;;11.80;99.90;;;;;;5116556;28;20066;-72
2022/11/04 07:23:14;;;;;;;11.27;2.80;;;11.90;99.90;;;;;;5117765;28;20040;-72
2022/11/04 07:25:40;;;;;;;4.97;1.45;;;11.90;99.90;;;;;;5153881;27;20424;-72
2022/11/04 07:28:06;;;;;;;3.67;1.10;;;11.90;99.90;;;;;;5120389;28;20032;-72
2022/11/04 07:30:31;;;;;;;6.38;1.35;;;11.90;99.90;;;;;;5120431;28;20412;-73
2022/11/04 07:32:57;;;;;;;5.88;0.95;;;11.90;99.90;;;;;;5120595;28;20371;-72
2022/11/04 07:35:23;;;;;;;4.22;1.13;;;11.90;99.90;;;;;;5119335;28;20043;-72
2022/11/04 07:37:49;;;;;;;7.00;1.40;;;11.90;99.90;;;;;;5120193;28;20110;-72
2022/11/04 07:40:15;;;;;;;2.75;1.17;;;11.90;99.90;;;;;;5119998;28;20495;-72
2022/11/04 07:42:40;;;;;;;2.00;0.93;;;11.90;99.90;;;;;;5119357;28;20035;-72
2022/11/04 07:45:07;;;;;;;4.97;0.98;;;12.00;99.90;;;;;;5120112;28;20444;-72
2022/11/04 07:47:32;;;;;;;5.75;1.42;;;12.00;99.90;;;;;;5119550;28;20065;-72
2022/11/04 07:49:58;;;;;;;4.82;1.25;;;11.90;99.90;;;;;;5119855;28;20039;-72
2022/11/04 07:52:24;;;;;;;3.75;1.27;;;11.90;99.90;;;;;;5118539;28;20130;-72
2022/11/04 07:54:50;;;;;;;1.80;0.82;;;11.80;99.90;;;;;;5153306;27;20035;-72
2022/11/04 07:57:16;;;;;;;7.03;1.10;;;11.90;99.90;;;;;;5120068;28;20043;-71
2022/11/04 07:59:41;;;;;;;4.63;1.33;;;11.90;99.90;;;;;;5120010;28;20043;-69
2022/11/04 08:02:09;;;;;;;3.13;1.52;;;11.70;99.90;;;;;;5119620;28;20433;-69
2022/11/04 08:04:35;;;;;;;6.30;1.80;;;11.80;99.90;;;;;;5118807;28;20036;-69
2022/11/04 08:07:01;;;;;;;5.90;2.28;;;11.70;99.90;;;;;;5119324;28;20039;-69
2022/11/04 08:09:26;;;;;;;5.57;2.20;;;11.70;99.90;;;;;;5119425;28;20065;-69
2022/11/04 08:11:52;;;;;;;6.75;2.80;;;11.70;99.90;;;;;;5119652;28;20070;-69
2022/11/04 08:14:18;;;;;;;3.67;2.00;;;11.60;99.90;;;;;;5119390;28;20040;-68
2022/11/04 08:16:43;;;;;;;3.75;1.67;;;11.70;99.90;;;;;;5119296;28;20428;-69
2022/11/04 08:19:09;;;;;;;7.60;2.47;;;11.60;99.90;;;;;;5119403;28;20424;-70
2022/11/04 08:21:35;;;;;;;4.55;1.75;;;11.80;99.90;;;;;;5119254;28;20036;-69
2022/11/04 08:24:04;;;;;;;5.10;1.42;;;11.80;99.90;;;;;;5118176;28;20039;-69
2022/11/04 08:26:29;;;;;;;5.70;2.60;;;11.70;99.90;;;;;;5118995;28;20044;-69
2022/11/04 08:28:55;;;;;;;10.10;4.10;;;11.60;99.90;;;;;;5119178;28;20066;-69
2022/11/04 08:31:27;;;;;;;5.78;2.25;;;11.60;99.90;;;;;;5119167;28;20056;-70
2022/11/04 08:33:54;;;;;;;7.22;3.55;;;11.50;99.90;;;;;;5152061;27;20042;-69
2022/11/04 08:36:26;;;;;;;6.10;2.20;;;11.50;99.90;;;;;;5118299;28;20035;-70
2022/11/04 08:38:52;;;;;;;6.57;2.30;;;11.40;99.90;;;;;;5119498;27;20367;-69
2022/11/04 08:41:21;;;;;;;5.10;1.90;;;11.30;99.90;;;;;;5118086;28;20325;-69
2022/11/04 08:43:47;;;;;;;6.93;2.30;;;11.20;99.90;;;;;;5118925;28;20322;-69
2022/11/04 08:46:14;;;;;;;9.07;2.72;;;11.20;99.90;;;;;;5118284;27;20035;-69
2022/11/04 08:48:41;;;;;;;6.45;2.05;;;11.20;99.90;;;;;;5118776;28;20086;-70
2022/11/04 08:51:14;;;;;;;4.45;1.98;;;11.40;99.90;;;;;;5118311;28;20035;-69
2022/11/04 08:53:40;;;;;;;4.30;1.90;;;11.40;99.90;;;;;;5118621;28;20344;-70
2022/11/04 08:56:20;;;;;;;7.53;1.98;;;11.50;99.90;;;;;;5117551;28;20122;-70
2022/11/04 08:58:47;;;;;;;7.68;2.63;;;11.50;99.90;;;;;;5151905;27;20039;-70
2022/11/04 09:01:14;;;;;;;5.60;2.00;;;11.50;99.90;;;;;;5135100;27;20072;-70
2022/11/04 09:03:40;;;;;;;6.28;1.92;;;11.40;99.90;;;;;;5118171;28;20086;-70
2022/11/04 09:06:09;;;;;;;6.65;2.13;;;11.50;99.90;;;;;;5117437;28;20043;-70
2022/11/04 09:08:38;;;;;;;7.43;2.33;;;11.50;99.90;;;;;;5118623;28;20169;-70
2022/11/04 09:11:10;;;;;;;5.15;1.90;;;11.40;99.90;;;;;;5118373;28;20103;-70
2022/11/04 09:13:36;;;;;;;4.70;1.63;;;11.60;99.90;;;;;;5117209;28;20035;-70
2022/11/04 09:16:03;;;;;;;7.95;2.00;;;11.60;99.90;;;;;;5117728;28;20167;-71
2022/11/04 09:18:29;;;;;;;6.47;1.95;;;11.70;99.90;;;;;;5118421;28;20039;-70
2022/11/04 09:20:59;;;;;;;6.90;1.63;;;11.70;99.90;;;;;;5118207;27;20046;-70
2022/11/04 09:23:25;;;;;;;7.28;1.60;;;11.80;99.90;;;;;;5117233;28;20071;-70
2022/11/04 09:25:51;;;;;;;3.78;1.70;;;12.00;99.90;;;;;;5117872;28;20075;-70
2022/11/04 09:28:16;;;;;;;4.50;1.40;;;12.10;99.90;;;;;;5117917;28;20035;-72
2022/11/04 09:30:42;;;;;;;3.53;1.25;;;12.10;99.90;;;;;;5151171;27;20027;-71
2022/11/04 09:33:08;;;;;;;6.65;1.33;;;12.00;99.90;;;;;;5116760;28;20086;-69
2022/11/04 09:35:33;;;;;;;4.90;1.30;;;11.90;99.90;;;;;;5118086;28;20074;-71
2022/11/04 09:38:00;;;;;;;2.30;0.80;;;11.90;99.90;;;;;;5117848;28;20062;-77
2022/11/04 09:40:27;;;;;;;6.15;1.17;;;12.00;99.90;;;;;;5133857;27;20078;-74
2022/11/04 09:42:54;;;;;;;6.15;1.00;;;11.70;99.90;;;;;;5116681;28;20040;-74
2022/11/04 09:45:25;;;;;;;4.85;1.40;;;11.90;99.90;;;;;;5117278;28;20046;-74
2022/11/04 09:47:57;;;;;;;13.23;1.70;;;12.00;99.90;;;;;;5117456;27;20071;-74
2022/11/04 09:50:44;;;;;;;26.00;2.53;;;12.00;99.90;;;;;;5116417;28;20110;-73
2022/11/04 09:53:18;;;;;;;11.48;1.88;;;12.30;99.90;;;;;;5114096;28;20051;-73
2022/11/04 09:55:55;;;;;;;19.15;1.98;;;12.20;99.90;;;;;;5117165;28;20106;-73
2022/11/04 09:58:21;;;;;;;20.35;1.63;;;12.20;99.90;;;;;;5117408;28;20043;-79
2022/11/04 10:01:02;;;;;;;8.15;1.08;;;12.30;99.90;;;;;;5117490;28;20042;-76
2022/11/04 10:03:57;;;;;;;16.38;1.85;;;12.40;99.90;;;;;;5117455;28;20035;-75
2022/11/04 10:06:29;;;;;;;6.07;1.23;;;12.50;99.90;;;;;;5150729;27;20051;-76
2022/11/04 10:09:28;;;;;;;3.38;0.80;;;12.20;99.90;;;;;;5117449;28;20330;-71
2022/11/04 10:12:37;;;;;;;6.88;0.90;;;12.60;99.90;;;;;;5117418;28;20044;-71
2022/11/04 10:15:33;;;;;;;9.85;1.60;;;13.00;99.90;;;;;;5116489;28;20040;-73
2022/11/04 10:18:14;;;;;;;6.80;1.80;;;13.30;99.90;;;;;;5116429;28;20409;-67
2022/11/04 10:21:03;;;;;;;5.80;0.77;;;13.30;99.90;;;;;;5117122;28;20075;-71
2022/11/04 10:23:53;;;;;;;6.53;0.90;;;13.70;99.90;;;;;;5150729;27;20039;-68
2022/11/04 10:26:43;;;;;;;6.63;0.93;;;14.10;99.90;;;;;;5115871;28;20047;-67
2022/11/04 10:29:39;;;;;;;8.45;0.85;;;14.10;99.90;;;;;;5117061;28;20066;-67
2022/11/04 10:32:13;;;;;;;5.55;1.17;;;14.30;99.90;;;;;;5117118;28;20097;-68
2022/11/04 10:34:57;;;;;;;4.35;1.00;;;13.90;99.90;;;;;;5116898;28;20036;-68
2022/11/04 10:37:25;;;;;;;6.43;1.08;;;14.10;99.90;;;;;;5116687;28;20040;-68
2022/11/04 10:39:58;;;;;;;3.60;0.90;;;14.50;99.90;;;;;;5150552;27;20092;-68
2022/11/04 10:42:23;;;;;;;7.85;0.93;;;14.60;99.90;;;;;;5116954;28;20039;-68
2022/11/04 10:44:51;;;;;;;4.95;0.98;;;14.80;99.90;;;;;;5117139;28;20451;-68
2022/11/04 10:47:48;;;;;;;6.63;1.00;;;15.10;99.90;;;;;;5116282;28;20040;-69
2022/11/04 10:50:24;;;;;;;3.22;0.75;;;14.90;99.90;;;;;;5116540;28;20415;-70
2022/11/04 10:52:53;;;;;;;;;;;15.00;99.90;;;;;;5117172;28;20055;-69
2022/11/04 10:56:08;;;;;;;6.18;1.02;;;14.90;99.90;;;;;;5116862;28;19963;-69
2022/11/04 10:58:44;;;;;;;8.77;1.40;;;14.50;99.90;;;;;;5113908;28;20052;-69
2022/11/04 11:01:31;;;;;;;5.35;0.90;;;15.20;99.90;;;;;;5120990;28;20043;-70
2022/11/04 11:03:58;;;;;;;4.68;1.00;;;15.50;99.90;;;;;;5154525;27;20039;-69
2022/11/04 11:06:32;;;;;;;7.55;0.90;;;15.50;99.90;;;;;;5120726;28;20428;-68
2022/11/04 11:09:28;;;;;;;5.10;0.90;;;15.50;99.90;;;;;;5120854;28;20093;-69
2022/11/04 11:12:12;;;;;;;5.57;0.95;;;15.30;99.90;;;;;;5121062;28;20167;-73
2022/11/04 11:14:40;;;;;;;5.97;0.82;;;15.50;99.90;;;;;;5120432;27;20047;-70
2022/11/04 11:17:15;;;;;;;6.07;1.33;;;15.20;99.90;;;;;;5153567;27;20331;-73
2022/11/04 11:20:17;;;;;;;5.18;1.20;;;15.40;99.90;;;;;;5119563;28;20053;-69
2022/11/04 11:22:45;;;;;;;5.93;0.80;;;15.20;99.90;;;;;;5120179;28;20035;-69
2022/11/04 11:25:30;;;;;;;6.70;0.90;;;15.00;99.70;;;;;;5120359;28;20043;-70
2022/11/04 11:28:00;;;;;;;4.85;0.70;;;14.70;99.90;;;;;;5119209;28;20048;-69
2022/11/04 11:30:32;;;;;;;5.82;1.00;;;14.90;99.80;;;;;;5120450;28;20054;-69
2022/11/04 11:33:06;;;;;;;7.90;1.02;;;14.80;99.70;;;;;;5153951;27;20043;-70
2022/11/04 11:35:41;;;;;;;5.63;0.80;;;14.70;99.70;;;;;;5119205;28;20043;-70
2022/11/04 11:38:26;;;;;;;6.70;0.85;;;14.60;99.90;;;;;;5120427;27;20028;-70
2022/11/04 11:41:04;;;;;;;4.18;1.13;;;14.80;99.90;;;;;;5120173;28;20059;-70
2022/11/04 11:43:32;;;;;;;6.63;1.05;;;15.00;99.30;;;;;;5120380;28;20039;-70
2022/11/04 11:45:59;;;;;;;7.65;0.90;;;15.00;99.40;;;;;;5119499;28;20047;-71
2022/11/04 11:48:31;;;;;;;3.92;0.90;;;15.30;99.90;;;;;;5119751;28;20067;-71
2022/11/04 11:50:58;;;;;;;6.97;1.05;;;15.40;99.10;;;;;;5119956;28;20040;-77
2022/11/04 11:53:25;;;;;;;4.50;0.95;;;14.90;99.30;;;;;;5135681;27;20048;-75
2022/11/04 11:56:00;;;;;;;8.20;0.90;;;14.50;99.50;;;;;;5118996;28;20486;-72
2022/11/04 11:58:47;;;;;;;4.20;0.70;;;14.10;99.90;;;;;;5119734;28;20093;-73
2022/11/04 12:01:22;;;;;;;5.80;1.40;;;14.20;99.70;;;;;;5118591;28;20036;-71
2022/11/04 12:03:48;;;;;;;3.72;0.85;;;14.00;99.90;;;;;;5119962;28;20053;-70
2022/11/04 12:06:23;;;;;;;1.70;0.63;;;13.90;99.90;;;;;;5119522;28;20043;-70
2022/11/04 12:08:55;;;;;;;5.40;0.50;;;13.90;99.60;;;;;;5119312;28;20140;-70
2022/11/04 12:11:52;;;;;;;5.45;0.70;;;13.90;99.00;;;;;;5119407;28;20118;-71
2022/11/04 12:14:48;;;;;;;5.22;0.70;;;14.40;98.80;;;;;;5087257;28;20104;-70
2022/11/04 12:17:32;;;;;;;3.40;0.73;;;15.00;98.90;;;;;;5118239;28;20046;-75
2022/11/04 12:20:21;;;;;;;3.85;0.60;;;15.10;97.80;;;;;;5119443;28;20071;-71
2022/11/04 12:23:11;;;;;;;2.72;0.40;;;14.90;98.40;;;;;;5119304;28;20069;-69
2022/11/04 12:25:37;;;;;;;5.18;0.93;;;14.60;98.40;;;;;;5119174;28;20051;-69
2022/11/04 12:28:12;;;;;;;5.38;0.50;;;14.50;98.30;;;;;;5152409;27;20042;-75
2022/11/04 12:31:08;;;;;;;5.53;0.60;;;14.20;98.50;;;;;;5119359;28;20040;-68
2022/11/04 12:33:36;;;;;;;3.38;0.52;;;14.40;99.00;;;;;;5119093;28;20132;-76
2022/11/04 12:36:13;;;;;;;3.40;0.40;;;14.50;98.90;;;;;;5117863;28;20075;-68
2022/11/04 12:38:39;;;;;;;7.40;0.75;;;14.20;99.20;;;;;;5118139;28;20052;-75
2022/11/04 12:41:28;;;;;;;4.72;0.75;;;14.20;99.10;;;;;;5117585;28;20483;-76
2022/11/04 12:43:56;;;;;;;3.55;0.60;;;13.80;99.20;;;;;;5119020;28;20043;-70
2022/11/04 13:02:55;;;;;;;2.90;0.40;;;14.80;98.70;;;;;;5794118;24;20022;31
2022/11/04 13:05:30;;;;;;;5.25;1.30;;;14.00;98.80;;;;;;4771692;30;20120;-70
2022/11/04 13:08:15;;;;;;;4.43;0.50;;;14.00;99.70;;;;;;4772977;30;20071;-74
2022/11/04 13:10:47;;;;;;;6.72;0.70;;;14.80;99.10;;;;;;4771975;30;20054;-70
2022/11/04 13:13:16;;;;;;;3.92;0.80;;;15.00;98.20;;;;;;4774183;30;20460;-69
2022/11/04 13:15:48;;;;;;;2.95;0.77;;;14.90;98.60;;;;;;4774439;30;20100;-69
2022/11/04 13:18:19;;;;;;;3.92;0.45;;;14.70;98.10;;;;;;4773475;30;20334;-70
2022/11/04 13:20:57;;;;;;;3.58;0.60;;;15.00;98.50;;;;;;4773566;30;20047;-69
2022/11/04 13:23:30;;;;;;;3.88;0.60;;;15.60;98.30;;;;;;4774176;30;20047;-70
2022/11/04 13:25:57;;;;;;;3.58;0.82;;;16.00;97.60;;;;;;4773884;30;20044;-69
2022/11/04 13:28:24;;;;;;;3.88;0.60;;;15.70;97.90;;;;;;4772784;30;20055;-69
2022/11/04 13:31:13;;;;;;;10.50;1.40;;;16.00;97.70;;;;;;4774114;30;20088;-69
2022/11/04 13:33:58;;;;;;;4.20;0.98;;;15.90;97.80;;;;;;4773897;30;20446;-74
2022/11/04 13:36:32;;;;;;;3.83;0.70;;;15.20;98.30;;;;;;4758438;30;20058;-69
2022/11/04 13:39:17;;;;;;;6.57;1.00;;;14.90;98.50;;;;;;4774286;30;20054;-69
2022/11/04 13:41:45;;;;;;;4.80;0.65;;;14.70;98.70;;;;;;4772913;30;20068;-68
2022/11/04 13:44:25;;;;;;;8.70;1.40;;;14.80;99.00;;;;;;4773886;30;20366;-67
2022/11/04 13:46:56;;;;;;;9.73;1.10;;;14.70;99.00;;;;;;4773594;30;20044;-67
2022/11/04 13:49:33;;;;;;;6.28;1.42;;;14.80;98.90;;;;;;4773923;30;20059;-70
2022/11/04 13:52:07;;;;;;;10.93;1.20;;;14.60;99.20;;;;;;4769657;30;20055;-72
2022/11/04 13:54:42;;;;;;;7.45;1.17;;;14.50;99.40;;;;;;4769009;30;20457;-70
2022/11/04 13:57:19;;;;;;;7.15;1.30;;;14.50;99.50;;;;;;4769761;30;20056;-69
2022/11/04 14:00:08;;;;;;;9.77;0.93;;;14.50;99.50;;;;;;4754116;30;20093;-69